Time,TemperatureF,DewpointF,PressureIn,WindDirection,WindDirectionDegrees,WindSpeedMPH,WindSpeedGustMPH,Humidity,HourlyPrecipIn,Conditions,Clouds,dailyrainin,SolarRadiationWatts/m^2,SoftwareType,DateUTC
2013-06-14 00:02:00,56.0,43.0,-100.00,North,352,0.0,4.0,62,0.00,,,0.00,0.000000,,2013-06-14 07:02:00,
2013-06-14 00:12:00,56.0,43.0,-100.00,North,352,0.0,4.0,62,0.00,,,0.00,0.000000,,2013-06-14 07:12:00,
2013-06-14 00:43:00,54.0,42.0,-100.00,NW,321,0.0,5.0,64,-99.99,,,0.00,0.000000,,2013-06-14 07:43:00,
2013-06-14 00:53:00,54.0,42.0,-100.00,NW,321,0.0,5.0,64,-99.99,,,0.00,0.000000,,2013-06-14 07:53:00,
2013-06-14 07:43:00,63.0,25.0,-100.00,SE,144,0.0,0.0,23,-99.99,,,0.00,225.000000,,2013-06-14 14:43:00,
2013-06-14 07:52:00,63.0,25.0,-100.00,SE,144,0.0,0.0,23,-99.99,,,0.00,225.000000,,2013-06-14 14:52:00,
2013-06-14 08:01:00,63.0,25.0,-100.00,SE,144,0.0,0.0,23,-99.99,,,0.00,225.000000,,2013-06-14 15:01:00,
2013-06-14 08:11:00,63.0,25.0,-100.00,SE,144,0.0,0.0,23,-99.99,,,0.00,225.000000,,2013-06-14 15:11:00,
2013-06-14 08:44:00,77.0,20.0,-100.00,NE,51,0.0,3.0,12,0.00,,,0.00,491.000000,,2013-06-14 15:44:00,
2013-06-14 08:53:00,77.0,20.0,-100.00,NE,51,0.0,3.0,12,0.00,,,0.00,491.000000,,2013-06-14 15:53:00,
2013-06-14 09:01:00,77.0,20.0,-100.00,NE,51,0.0,3.0,12,0.00,,,0.00,491.000000,,2013-06-14 16:01:00,
2013-06-14 09:11:00,77.0,20.0,-100.00,NE,51,0.0,3.0,12,0.00,,,0.00,491.000000,,2013-06-14 16:11:00,
2013-06-14 14:43:00,85.0,39.0,-100.00,West,268,7.0,15.0,20,-99.99,,,-99.99,1237.000000,,2013-06-14 21:43:00,
2013-06-14 19:43:00,74.0,46.0,-100.00,WNW,297,1.0,8.0,37,-99.99,,,0.00,259.000000,,2013-06-15 02:43:00,
2013-06-14 19:53:00,74.0,46.0,-100.00,WNW,297,1.0,8.0,37,-99.99,,,0.00,259.000000,,2013-06-15 02:53:00,
2013-06-14 20:01:00,74.0,46.0,-100.00,WNW,297,1.0,8.0,37,-99.99,,,0.00,259.000000,,2013-06-15 03:01:00,
2013-06-14 20:11:00,74.0,46.0,-100.00,WNW,297,1.0,8.0,37,-99.99,,,0.00,259.000000,,2013-06-15 03:11:00,
2013-06-14 20:44:00,63.0,46.0,-100.00,SSE,149,0.0,6.0,53,-99.99,,,0.00,24.000000,,2013-06-15 03:44:00,
2013-06-14 20:53:00,63.0,46.0,-100.00,SSE,149,0.0,6.0,53,-99.99,,,0.00,24.000000,,2013-06-15 03:53:00,
2013-06-14 21:01:00,63.0,46.0,-100.00,SSE,149,0.0,6.0,53,-99.99,,,0.00,24.000000,,2013-06-15 04:01:00,
2013-06-14 21:11:00,63.0,46.0,-100.00,SSE,149,0.0,6.0,53,-99.99,,,0.00,24.000000,,2013-06-15 04:11:00,
2013-06-14 21:43:00,56.0,44.0,-100.00,South,179,0.0,4.0,63,0.00,,,0.00,0.000000,,2013-06-15 04:43:00,
2013-06-14 21:54:00,56.0,44.0,-100.00,South,179,0.0,4.0,63,0.00,,,0.00,0.000000,,2013-06-15 04:54:00,
2013-06-14 22:02:00,56.0,44.0,-100.00,South,179,0.0,4.0,63,0.00,,,0.00,0.000000,,2013-06-15 05:02:00,
2013-06-14 22:12:00,56.0,44.0,-100.00,South,179,0.0,4.0,63,0.00,,,0.00,0.000000,,2013-06-15 05:12:00,